Aérodrome :
LOGIN :

S'inscrire | Disclaimer

   EN    FR    IT 

 










Légende :    VFR   VFR Marginal   IFR   IFR Intensif   IFR Très Intensif
Visi : 
Plafond : 
>= 8 km
>= 3000ft
5 à 8 km
1000 à 3000 ft
1500m à 5 km
500 à 1000 ft
800 à 1500m
200 à 500 ft
< 800m
< 200 ft
Symboles :   Orages  Brouillard  Fortes neiges  Fortes précipitations  Vent > 20 kt
SIGMETs :   Divers  Orages  Givrage  Turbulence  Onde Orograph.  Cendres Volcan.







- Altitude de l'aérodrome : 1416 ft
- Code IATA : ZRH


LSZH - Zurich

DERNIER METAR :
  • 301020Z 05007KT 360V110 CAVOK 16/06 Q1027 NOSIG

METARs EXPIRÉS :
  • 300950Z 02006KT 350V070 CAVOK 15/06 Q1027 NOSIG
  • 300920Z 03005KT 320V080 CAVOK 15/06 Q1027 NOSIG
  • 300850Z 36004KT 300V060 CAVOK 13/05 Q1027 NOSIG
  • 300820Z VRB02KT CAVOK 12/05 Q1027 NOSIG
  • 300750Z 32003KT 270V010 CAVOK 10/05 Q1027 NOSIG

TAF TAF LSZH
Valide du 30 à 09h jusqu'au 31 à 15h UTC


300825Z 3009/3115 VRB03KT CAVOK TX20/3014Z TN03/3105Z TX23/3114Z
BECMG 3009/3011 05005KT
BECMG 3016/3019 VRB03KT
ATIS : +41 43 816 2295 (DEP) +41 43 816 2294 (ARR)
Pas de NOTAMs connus pour ce terrain.



MET'MAP, la Météo Aéronautique d'un coup d'oeil ! - Copyright ORBIFLY Décembre 2007 - Disclaimer

ORBIFLY MET'MAP TEAM :

Programmation & Développement : Alexandra Zaïnal
Conception & Développement : Baudouin d'Aumeries
Co-Programmation & Développement : Marc-Olivier Méhu
Soutien technique & logistique : Manuel Goepfert

Contact : metmap@orbifly.com




SOURCES & CREDITS :

   NOAA